GMMX/RAK METAR and TAF weather

Enter ICAO airport designator
Station Type Date Time Source
GMMX METAR 2020/09/22 08:30 UTC NOAA

GMMX 220830Z VRB02KT 9999 SCT100 24/13 Q1017 NOSIG


Station Type Date Time Source
GMMX Decoded METAR 2020/09/22 08:30 UTC NOAA

Marrakech, Morocco (GMMX) 31-37N 008-02W 466M
Sep 22, 2020 - 04:30 AM EDT / 2020.09.22 0830 UTC
Wind: Variable at 2 MPH (2 KT):0
Visibility: greater than 7 mile(s):0
Sky conditions: partly cloudy
Temperature: 75 F (24 C)
Dew Point: 55 F (13 C)
Relative Humidity: 50%
Pressure (altimeter): 30.03 in. Hg (1017 hPa)
ob: GMMX 220830Z VRB02KT 9999 SCT100 24/13 Q1017 NOSIG
cycle: 8

Station Type Date Time Source
GMMX TAF 2020/09/22 06:27 UTC NOAA

TAF TAF GMMX 220500Z 2206/2312 24006KT 8000 NSC
TEMPO 2214/2222 34016KT SCT030

Example: see airport list